sensor_id;sensor_type;location;lat;lon;timestamp;temperature;humidity
14049;DHT22;7099;53.922;10.728;2023-03-01T00:01:53;-0.40;62.50
14049;DHT22;7099;53.922;10.728;2023-03-01T00:05:59;-0.50;62.60
14049;DHT22;7099;53.922;10.728;2023-03-01T00:10:04;-0.50;62.60
14049;DHT22;7099;53.922;10.728;2023-03-01T00:14:11;-0.50;63.00
14049;DHT22;7099;53.922;10.728;2023-03-01T00:18:16;-0.50;63.20
14049;DHT22;7099;53.922;10.728;2023-03-01T00:22:22;-0.50;62.80
14049;DHT22;7099;53.922;10.728;2023-03-01T00:26:28;-0.50;62.70
14049;DHT22;7099;53.922;10.728;2023-03-01T00:30:34;-0.50;62.60
14049;DHT22;7099;53.922;10.728;2023-03-01T00:34:40;-0.60;62.60
14049;DHT22;7099;53.922;10.728;2023-03-01T00:38:46;-0.60;62.80
14049;DHT22;7099;53.922;10.728;2023-03-01T00:42:52;-0.70;63.30
14049;DHT22;7099;53.922;10.728;2023-03-01T00:46:57;-0.70;63.40
14049;DHT22;7099;53.922;10.728;2023-03-01T00:55:12;-0.70;63.00
14049;DHT22;7099;53.922;10.728;2023-03-01T00:59:18;-0.70;62.90
14049;DHT22;7099;53.922;10.728;2023-03-01T01:03:23;-0.80;63.10
14049;DHT22;7099;53.922;10.728;2023-03-01T01:07:30;-0.80;63.40
14049;DHT22;7099;53.922;10.728;2023-03-01T01:11:35;-0.80;63.40
14049;DHT22;7099;53.922;10.728;2023-03-01T01:15:41;-0.80;63.40
14049;DHT22;7099;53.922;10.728;2023-03-01T01:19:47;-0.90;63.40
14049;DHT22;7099;53.922;10.728;2023-03-01T01:23:53;-0.90;63.30
14049;DHT22;7099;53.922;10.728;2023-03-01T01:27:59;-1.00;63.40
14049;DHT22;7099;53.922;10.728;2023-03-01T01:32:05;-1.00;63.30
14049;DHT22;7099;53.922;10.728;2023-03-01T01:36:11;-1.00;63.60
14049;DHT22;7099;53.922;10.728;2023-03-01T01:40:17;-1.10;63.60
14049;DHT22;7099;53.922;10.728;2023-03-01T01:44:26;-1.10;63.50
14049;DHT22;7099;53.922;10.728;2023-03-01T01:48:48;-1.10;63.70
14049;DHT22;7099;53.922;10.728;2023-03-01T01:52:55;-1.10;63.80
14049;DHT22;7099;53.922;10.728;2023-03-01T01:57:03;-1.10;63.90
14049;DHT22;7099;53.922;10.728;2023-03-01T02:01:16;-1.20;64.10
14049;DHT22;7099;53.922;10.728;2023-03-01T02:09:59;-1.20;64.10
14049;DHT22;7099;53.922;10.728;2023-03-01T02:14:05;-1.20;64.00
14049;DHT22;7099;53.922;10.728;2023-03-01T02:18:14;-1.30;63.80
14049;DHT22;7099;53.922;10.728;2023-03-01T02:26:34;-1.30;64.40
14049;DHT22;7099;53.922;10.728;2023-03-01T02:30:47;-1.30;64.70
14049;DHT22;7099;53.922;10.728;2023-03-01T02:35:14;-1.30;64.60
14049;DHT22;7099;53.922;10.728;2023-03-01T02:39:48;-1.30;64.40
14049;DHT22;7099;53.922;10.728;2023-03-01T02:43:53;-1.30;64.60
14049;DHT22;7099;53.922;10.728;2023-03-01T02:47:58;-1.40;64.20
14049;DHT22;7099;53.922;10.728;2023-03-01T02:56:34;-1.40;64.10
14049;DHT22;7099;53.922;10.728;2023-03-01T03:00:42;-1.50;64.10
14049;DHT22;7099;53.922;10.728;2023-03-01T03:04:52;-1.50;64.20
14049;DHT22;7099;53.922;10.728;2023-03-01T03:08:57;-1.50;64.20
14049;DHT22;7099;53.922;10.728;2023-03-01T03:13:06;-1.50;64.40
14049;DHT22;7099;53.922;10.728;2023-03-01T03:17:13;-1.50;64.40
14049;DHT22;7099;53.922;10.728;2023-03-01T03:21:19;-1.60;64.30
14049;DHT22;7099;53.922;10.728;2023-03-01T03:25:26;-1.60;64.30
14049;DHT22;7099;53.922;10.728;2023-03-01T03:29:33;-1.70;64.40
14049;DHT22;7099;53.922;10.728;2023-03-01T03:33:39;-1.70;64.50
14049;DHT22;7099;53.922;10.728;2023-03-01T03:37:44;-1.70;64.90
14049;DHT22;7099;53.922;10.728;2023-03-01T03:42:08;-1.70;65.00
14049;DHT22;7099;53.922;10.728;2023-03-01T03:46:15;-1.70;65.00
14049;DHT22;7099;53.922;10.728;2023-03-01T03:50:22;-1.70;65.10
14049;DHT22;7099;53.922;10.728;2023-03-01T03:54:27;-1.70;65.10
14049;DHT22;7099;53.922;10.728;2023-03-01T03:58:33;-1.80;65.40
14049;DHT22;7099;53.922;10.728;2023-03-01T04:02:40;-1.80;65.30
14049;DHT22;7099;53.922;10.728;2023-03-01T04:06:46;-1.80;65.00
14049;DHT22;7099;53.922;10.728;2023-03-01T04:11:01;-1.80;65.10
14049;DHT22;7099;53.922;10.728;2023-03-01T04:15:26;-1.80;65.20
14049;DHT22;7099;53.922;10.728;2023-03-01T04:19:32;-1.80;65.40
14049;DHT22;7099;53.922;10.728;2023-03-01T04:23:41;-1.80;65.20
14049;DHT22;7099;53.922;10.728;2023-03-01T04:27:46;-1.80;65.10
14049;DHT22;7099;53.922;10.728;2023-03-01T04:31:52;-1.90;65.20
14049;DHT22;7099;53.922;10.728;2023-03-01T04:35:58;-1.90;65.30
14049;DHT22;7099;53.922;10.728;2023-03-01T04:40:04;-1.90;65.00
14049;DHT22;7099;53.922;10.728;2023-03-01T04:44:20;-1.90;65.00
14049;DHT22;7099;53.922;10.728;2023-03-01T04:48:26;-2.00;64.90
14049;DHT22;7099;53.922;10.728;2023-03-01T04:52:31;-2.00;65.20
14049;DHT22;7099;53.922;10.728;2023-03-01T04:56:37;-2.10;65.30
14049;DHT22;7099;53.922;10.728;2023-03-01T05:00:42;-2.00;65.40
14049;DHT22;7099;53.922;10.728;2023-03-01T05:04:48;-2.10;65.60
14049;DHT22;7099;53.922;10.728;2023-03-01T05:08:54;-2.00;65.80
14049;DHT22;7099;53.922;10.728;2023-03-01T05:12:59;-2.10;66.30
14049;DHT22;7099;53.922;10.728;2023-03-01T05:17:05;-2.00;66.70
14049;DHT22;7099;53.922;10.728;2023-03-01T05:21:13;-2.00;66.90
14049;DHT22;7099;53.922;10.728;2023-03-01T05:25:21;-2.00;67.90
14049;DHT22;7099;53.922;10.728;2023-03-01T05:29:28;-2.00;68.00
14049;DHT22;7099;53.922;10.728;2023-03-01T05:33:40;-2.00;68.40
14049;DHT22;7099;53.922;10.728;2023-03-01T05:37:47;-1.90;68.40
14049;DHT22;7099;53.922;10.728;2023-03-01T05:41:59;-1.90;68.40
14049;DHT22;7099;53.922;10.728;2023-03-01T05:46:06;-1.90;69.10
14049;DHT22;7099;53.922;10.728;2023-03-01T05:50:14;-1.80;69.90
14049;DHT22;7099;53.922;10.728;2023-03-01T05:54:24;-1.80;70.30
14049;DHT22;7099;53.922;10.728;2023-03-01T05:58:30;-1.70;70.40
14049;DHT22;7099;53.922;10.728;2023-03-01T06:02:35;-1.70;70.80
14049;DHT22;7099;53.922;10.728;2023-03-01T06:06:41;-1.70;70.90
14049;DHT22;7099;53.922;10.728;2023-03-01T06:10:47;-1.60;71.50
14049;DHT22;7099;53.922;10.728;2023-03-01T06:14:52;-1.60;71.40
14049;DHT22;7099;53.922;10.728;2023-03-01T06:18:58;-1.50;71.20
14049;DHT22;7099;53.922;10.728;2023-03-01T06:23:04;-1.50;71.70
14049;DHT22;7099;53.922;10.728;2023-03-01T06:27:09;-1.40;71.90
14049;DHT22;7099;53.922;10.728;2023-03-01T06:31:15;-1.40;72.20
14049;DHT22;7099;53.922;10.728;2023-03-01T06:35:20;-1.40;72.10
14049;DHT22;7099;53.922;10.728;2023-03-01T06:39:27;-1.30;72.70
14049;DHT22;7099;53.922;10.728;2023-03-01T06:43:33;-1.30;72.80
14049;DHT22;7099;53.922;10.728;2023-03-01T06:47:38;-1.30;72.60
14049;DHT22;7099;53.922;10.728;2023-03-01T06:51:44;-1.20;72.50
14049;DHT22;7099;53.922;10.728;2023-03-01T06:55:57;-1.20;72.20
14049;DHT22;7099;53.922;10.728;2023-03-01T07:00:06;-1.10;72.60
14049;DHT22;7099;53.922;10.728;2023-03-01T07:04:13;-1.00;71.80
14049;DHT22;7099;53.922;10.728;2023-03-01T07:08:19;-1.00;71.70
14049;DHT22;7099;53.922;10.728;2023-03-01T07:12:25;-1.00;71.80
14049;DHT22;7099;53.922;10.728;2023-03-01T07:16:30;-0.90;71.90
14049;DHT22;7099;53.922;10.728;2023-03-01T07:20:36;-0.80;72.40
14049;DHT22;7099;53.922;10.728;2023-03-01T07:24:43;-0.80;72.40
14049;DHT22;7099;53.922;10.728;2023-03-01T07:28:48;-0.70;72.60
14049;DHT22;7099;53.922;10.728;2023-03-01T07:32:55;-0.60;72.70
14049;DHT22;7099;53.922;10.728;2023-03-01T07:37:02;-0.50;72.80
14049;DHT22;7099;53.922;10.728;2023-03-01T07:41:08;-0.60;72.80
14049;DHT22;7099;53.922;10.728;2023-03-01T07:45:13;-0.40;73.00
14049;DHT22;7099;53.922;10.728;2023-03-01T07:49:19;-0.40;73.00
14049;DHT22;7099;53.922;10.728;2023-03-01T07:53:25;-0.40;73.20
14049;DHT22;7099;53.922;10.728;2023-03-01T07:57:31;-0.30;73.30
14049;DHT22;7099;53.922;10.728;2023-03-01T08:01:36;-0.20;73.20
14049;DHT22;7099;53.922;10.728;2023-03-01T08:05:42;-0.20;73.30
14049;DHT22;7099;53.922;10.728;2023-03-01T08:09:47;-0.10;73.60
14049;DHT22;7099;53.922;10.728;2023-03-01T08:13:53;-0.10;73.60
14049;DHT22;7099;53.922;10.728;2023-03-01T08:17:59;0.00;74.10
14049;DHT22;7099;53.922;10.728;2023-03-01T08:22:05;0.00;73.90
14049;DHT22;7099;53.922;10.728;2023-03-01T08:26:17;0.10;74.10
14049;DHT22;7099;53.922;10.728;2023-03-01T08:30:23;0.20;74.50
14049;DHT22;7099;53.922;10.728;2023-03-01T08:34:29;0.30;74.30
14049;DHT22;7099;53.922;10.728;2023-03-01T08:38:36;0.30;74.30
14049;DHT22;7099;53.922;10.728;2023-03-01T08:42:42;0.40;74.40
14049;DHT22;7099;53.922;10.728;2023-03-01T08:46:48;0.50;74.40
14049;DHT22;7099;53.922;10.728;2023-03-01T08:50:55;0.60;74.70
14049;DHT22;7099;53.922;10.728;2023-03-01T08:55:01;0.60;74.50
14049;DHT22;7099;53.922;10.728;2023-03-01T08:59:07;0.70;74.60
14049;DHT22;7099;53.922;10.728;2023-03-01T09:03:12;0.90;74.60
14049;DHT22;7099;53.922;10.728;2023-03-01T09:07:18;1.00;74.60
14049;DHT22;7099;53.922;10.728;2023-03-01T09:11:24;1.10;74.50
14049;DHT22;7099;53.922;10.728;2023-03-01T09:15:29;1.30;74.50
14049;DHT22;7099;53.922;10.728;2023-03-01T09:19:35;1.40;74.40
14049;DHT22;7099;53.922;10.728;2023-03-01T09:23:43;1.50;74.40
14049;DHT22;7099;53.922;10.728;2023-03-01T09:27:53;1.60;74.60
14049;DHT22;7099;53.922;10.728;2023-03-01T09:31:59;1.70;75.10
14049;DHT22;7099;53.922;10.728;2023-03-01T09:36:11;1.90;74.50
14049;DHT22;7099;53.922;10.728;2023-03-01T09:40:21;2.10;74.70
14049;DHT22;7099;53.922;10.728;2023-03-01T09:44:46;2.20;74.30
14049;DHT22;7099;53.922;10.728;2023-03-01T09:49:02;2.40;74.10
14049;DHT22;7099;53.922;10.728;2023-03-01T09:53:15;2.50;74.10
14049;DHT22;7099;53.922;10.728;2023-03-01T09:57:30;2.60;73.60
14049;DHT22;7099;53.922;10.728;2023-03-01T10:01:50;2.80;73.50
14049;DHT22;7099;53.922;10.728;2023-03-01T10:06:18;3.00;73.70
14049;DHT22;7099;53.922;10.728;2023-03-01T10:10:43;3.10;73.40
14049;DHT22;7099;53.922;10.728;2023-03-01T10:15:06;3.30;72.40
14049;DHT22;7099;53.922;10.728;2023-03-01T10:19:25;3.40;72.50
14049;DHT22;7099;53.922;10.728;2023-03-01T10:23:34;3.60;72.30
14049;DHT22;7099;53.922;10.728;2023-03-01T10:27:47;3.80;72.20
14049;DHT22;7099;53.922;10.728;2023-03-01T10:31:56;3.90;71.50
14049;DHT22;7099;53.922;10.728;2023-03-01T10:36:02;4.00;71.40
14049;DHT22;7099;53.922;10.728;2023-03-01T10:40:09;4.20;71.30
14049;DHT22;7099;53.922;10.728;2023-03-01T10:48:45;4.60;71.40
14049;DHT22;7099;53.922;10.728;2023-03-01T10:53:04;4.70;70.40
14049;DHT22;7099;53.922;10.728;2023-03-01T10:57:29;4.80;70.30
14049;DHT22;7099;53.922;10.728;2023-03-01T11:06:29;5.20;69.10
14049;DHT22;7099;53.922;10.728;2023-03-01T11:10:36;5.50;68.60
14049;DHT22;7099;53.922;10.728;2023-03-01T11:14:53;5.50;69.00
14049;DHT22;7099;53.922;10.728;2023-03-01T11:19:20;5.80;67.10
14049;DHT22;7099;53.922;10.728;2023-03-01T11:23:28;5.90;66.60
14049;DHT22;7099;53.922;10.728;2023-03-01T11:27:38;6.10;66.00
14049;DHT22;7099;53.922;10.728;2023-03-01T11:31:46;6.20;66.40
14049;DHT22;7099;53.922;10.728;2023-03-01T11:40:25;6.50;65.70
14049;DHT22;7099;53.922;10.728;2023-03-01T11:44:35;6.70;64.70
14049;DHT22;7099;53.922;10.728;2023-03-01T11:53:43;6.80;63.30
14049;DHT22;7099;53.922;10.728;2023-03-01T11:58:25;6.90;63.60
14049;DHT22;7099;53.922;10.728;2023-03-01T12:07:44;7.00;62.60
14049;DHT22;7099;53.922;10.728;2023-03-01T12:54:31;7.50;61.50
14049;DHT22;7099;53.922;10.728;2023-03-01T12:58:51;7.50;61.10
14049;DHT22;7099;53.922;10.728;2023-03-01T13:03:26;7.60;60.90
14049;DHT22;7099;53.922;10.728;2023-03-01T13:08:15;7.60;61.40
14049;DHT22;7099;53.922;10.728;2023-03-01T13:12:50;7.60;60.30
14049;DHT22;7099;53.922;10.728;2023-03-01T13:16:57;7.70;61.10
14049;DHT22;7099;53.922;10.728;2023-03-01T13:21:04;7.70;61.00
14049;DHT22;7099;53.922;10.728;2023-03-01T13:25:19;7.80;60.50
14049;DHT22;7099;53.922;10.728;2023-03-01T13:29:26;7.80;60.50
14049;DHT22;7099;53.922;10.728;2023-03-01T13:37:42;8.00;60.00
14049;DHT22;7099;53.922;10.728;2023-03-01T13:41:52;8.10;59.70
14049;DHT22;7099;53.922;10.728;2023-03-01T13:45:59;8.20;59.80
14049;DHT22;7099;53.922;10.728;2023-03-01T13:50:06;8.20;59.30
14049;DHT22;7099;53.922;10.728;2023-03-01T13:54:12;8.30;59.10
14049;DHT22;7099;53.922;10.728;2023-03-01T13:58:21;8.40;58.80
14049;DHT22;7099;53.922;10.728;2023-03-01T14:02:31;8.40;58.90
14049;DHT22;7099;53.922;10.728;2023-03-01T14:06:37;8.60;58.30
14049;DHT22;7099;53.922;10.728;2023-03-01T14:10:58;8.70;58.30
14049;DHT22;7099;53.922;10.728;2023-03-01T14:19:43;8.90;57.90
14049;DHT22;7099;53.922;10.728;2023-03-01T14:23:51;9.10;57.80
14049;DHT22;7099;53.922;10.728;2023-03-01T14:28:04;9.10;57.70
14049;DHT22;7099;53.922;10.728;2023-03-01T14:32:22;9.20;57.80
14049;DHT22;7099;53.922;10.728;2023-03-01T14:36:32;9.40;57.70
14049;DHT22;7099;53.922;10.728;2023-03-01T14:40:39;9.40;57.10
14049;DHT22;7099;53.922;10.728;2023-03-01T14:44:46;9.50;57.20
14049;DHT22;7099;53.922;10.728;2023-03-01T14:48:58;9.60;57.20
14049;DHT22;7099;53.922;10.728;2023-03-01T14:53:39;9.70;56.70
14049;DHT22;7099;53.922;10.728;2023-03-01T14:57:56;9.70;56.30
14049;DHT22;7099;53.922;10.728;2023-03-01T15:02:02;9.70;56.70
14049;DHT22;7099;53.922;10.728;2023-03-01T15:06:09;9.70;57.00
14049;DHT22;7099;53.922;10.728;2023-03-01T15:10:26;9.60;56.60
14049;DHT22;7099;53.922;10.728;2023-03-01T15:14:42;9.50;56.60
14049;DHT22;7099;53.922;10.728;2023-03-01T15:19:06;9.40;56.80
14049;DHT22;7099;53.922;10.728;2023-03-01T15:23:22;9.30;57.00
14049;DHT22;7099;53.922;10.728;2023-03-01T15:27:32;9.20;57.00
14049;DHT22;7099;53.922;10.728;2023-03-01T15:31:37;9.20;57.60
14049;DHT22;7099;53.922;10.728;2023-03-01T15:35:47;9.10;57.70
14049;DHT22;7099;53.922;10.728;2023-03-01T15:39:58;9.00;58.10
14049;DHT22;7099;53.922;10.728;2023-03-01T15:44:14;8.90;58.00
14049;DHT22;7099;53.922;10.728;2023-03-01T15:48:21;8.80;58.50
14049;DHT22;7099;53.922;10.728;2023-03-01T15:52:35;8.70;58.80
14049;DHT22;7099;53.922;10.728;2023-03-01T15:56:44;8.50;58.90
14049;DHT22;7099;53.922;10.728;2023-03-01T16:00:50;8.30;59.00
14049;DHT22;7099;53.922;10.728;2023-03-01T16:05:12;8.20;59.50
14049;DHT22;7099;53.922;10.728;2023-03-01T16:09:22;8.00;60.00
14049;DHT22;7099;53.922;10.728;2023-03-01T16:13:28;7.90;60.20
14049;DHT22;7099;53.922;10.728;2023-03-01T16:17:33;7.70;60.40
14049;DHT22;7099;53.922;10.728;2023-03-01T16:21:39;7.50;60.80
14049;DHT22;7099;53.922;10.728;2023-03-01T16:25:45;7.40;61.20
14049;DHT22;7099;53.922;10.728;2023-03-01T16:29:50;7.20;61.40
14049;DHT22;7099;53.922;10.728;2023-03-01T16:33:57;7.00;62.00
14049;DHT22;7099;53.922;10.728;2023-03-01T16:38:03;6.80;62.50
14049;DHT22;7099;53.922;10.728;2023-03-01T16:42:09;6.70;63.40
14049;DHT22;7099;53.922;10.728;2023-03-01T16:46:20;6.60;63.30
14049;DHT22;7099;53.922;10.728;2023-03-01T16:50:28;6.60;63.20
14049;DHT22;7099;53.922;10.728;2023-03-01T16:54:33;6.50;63.60
14049;DHT22;7099;53.922;10.728;2023-03-01T16:58:39;6.30;63.90
14049;DHT22;7099;53.922;10.728;2023-03-01T17:02:45;6.30;63.90
14049;DHT22;7099;53.922;10.728;2023-03-01T17:06:51;6.30;63.90
14049;DHT22;7099;53.922;10.728;2023-03-01T17:11:23;6.20;64.20
14049;DHT22;7099;53.922;10.728;2023-03-01T17:15:27;6.20;64.30
14049;DHT22;7099;53.922;10.728;2023-03-01T17:19:33;6.10;64.40
14049;DHT22;7099;53.922;10.728;2023-03-01T17:23:42;6.00;64.70
14049;DHT22;7099;53.922;10.728;2023-03-01T17:27:48;6.00;65.00
14049;DHT22;7099;53.922;10.728;2023-03-01T17:31:55;5.90;64.80
14049;DHT22;7099;53.922;10.728;2023-03-01T17:36:01;5.80;65.20
14049;DHT22;7099;53.922;10.728;2023-03-01T17:40:07;5.70;65.60
14049;DHT22;7099;53.922;10.728;2023-03-01T17:44:13;5.80;65.60
14049;DHT22;7099;53.922;10.728;2023-03-01T17:48:19;5.70;66.10
14049;DHT22;7099;53.922;10.728;2023-03-01T17:52:25;5.60;66.50
14049;DHT22;7099;53.922;10.728;2023-03-01T17:56:31;5.60;66.60
14049;DHT22;7099;53.922;10.728;2023-03-01T18:00:38;5.50;66.70
14049;DHT22;7099;53.922;10.728;2023-03-01T18:04:43;5.50;66.90
14049;DHT22;7099;53.922;10.728;2023-03-01T18:08:49;5.50;67.70
14049;DHT22;7099;53.922;10.728;2023-03-01T18:12:56;5.40;67.10
14049;DHT22;7099;53.922;10.728;2023-03-01T18:17:01;5.30;67.80
14049;DHT22;7099;53.922;10.728;2023-03-01T18:21:11;5.10;68.20
14049;DHT22;7099;53.922;10.728;2023-03-01T18:25:18;5.00;68.40
14049;DHT22;7099;53.922;10.728;2023-03-01T18:29:24;5.00;68.20
14049;DHT22;7099;53.922;10.728;2023-03-01T18:33:30;5.00;68.20
14049;DHT22;7099;53.922;10.728;2023-03-01T18:37:36;5.00;68.80
14049;DHT22;7099;53.922;10.728;2023-03-01T18:41:42;5.00;68.50
14049;DHT22;7099;53.922;10.728;2023-03-01T18:45:48;4.90;68.70
14049;DHT22;7099;53.922;10.728;2023-03-01T18:49:54;4.80;68.80
14049;DHT22;7099;53.922;10.728;2023-03-01T18:54:00;4.80;69.10
14049;DHT22;7099;53.922;10.728;2023-03-01T18:58:05;4.80;69.20
14049;DHT22;7099;53.922;10.728;2023-03-01T19:02:11;4.80;69.20
14049;DHT22;7099;53.922;10.728;2023-03-01T19:06:19;4.80;69.20
14049;DHT22;7099;53.922;10.728;2023-03-01T19:10:25;4.70;69.50
14049;DHT22;7099;53.922;10.728;2023-03-01T19:14:32;4.70;69.40
14049;DHT22;7099;53.922;10.728;2023-03-01T19:18:39;4.60;69.40
14049;DHT22;7099;53.922;10.728;2023-03-01T19:22:46;4.60;69.60
14049;DHT22;7099;53.922;10.728;2023-03-01T19:26:54;4.50;69.90
14049;DHT22;7099;53.922;10.728;2023-03-01T19:31:02;4.50;70.10
14049;DHT22;7099;53.922;10.728;2023-03-01T19:35:10;4.50;70.00
14049;DHT22;7099;53.922;10.728;2023-03-01T19:39:16;4.50;70.20
14049;DHT22;7099;53.922;10.728;2023-03-01T19:43:22;4.40;70.40
14049;DHT22;7099;53.922;10.728;2023-03-01T19:47:28;4.40;70.30
14049;DHT22;7099;53.922;10.728;2023-03-01T19:51:34;4.40;70.40
14049;DHT22;7099;53.922;10.728;2023-03-01T19:55:43;4.40;70.40
14049;DHT22;7099;53.922;10.728;2023-03-01T19:59:48;4.30;70.30
14049;DHT22;7099;53.922;10.728;2023-03-01T20:03:54;4.20;70.60
14049;DHT22;7099;53.922;10.728;2023-03-01T20:08:00;4.20;70.90
14049;DHT22;7099;53.922;10.728;2023-03-01T20:12:06;4.00;71.30
14049;DHT22;7099;53.922;10.728;2023-03-01T20:16:15;4.00;71.30
14049;DHT22;7099;53.922;10.728;2023-03-01T20:20:22;4.00;71.70
14049;DHT22;7099;53.922;10.728;2023-03-01T20:24:28;4.00;71.70
14049;DHT22;7099;53.922;10.728;2023-03-01T20:28:35;4.00;71.70
14049;DHT22;7099;53.922;10.728;2023-03-01T20:32:41;3.90;71.80
14049;DHT22;7099;53.922;10.728;2023-03-01T20:36:47;3.90;71.80
14049;DHT22;7099;53.922;10.728;2023-03-01T20:41:10;3.80;71.80
14049;DHT22;7099;53.922;10.728;2023-03-01T20:45:16;3.80;72.40
14049;DHT22;7099;53.922;10.728;2023-03-01T20:49:23;3.80;72.10
14049;DHT22;7099;53.922;10.728;2023-03-01T20:53:28;3.80;72.30
14049;DHT22;7099;53.922;10.728;2023-03-01T20:57:34;3.80;72.50
14049;DHT22;7099;53.922;10.728;2023-03-01T21:01:40;3.80;72.50
14049;DHT22;7099;53.922;10.728;2023-03-01T21:05:45;3.80;72.70
14049;DHT22;7099;53.922;10.728;2023-03-01T21:09:52;3.70;72.70
14049;DHT22;7099;53.922;10.728;2023-03-01T21:13:58;3.70;72.80
14049;DHT22;7099;53.922;10.728;2023-03-01T21:18:03;3.70;72.90
14049;DHT22;7099;53.922;10.728;2023-03-01T21:22:13;3.70;73.00
14049;DHT22;7099;53.922;10.728;2023-03-01T21:26:24;3.60;73.20
14049;DHT22;7099;53.922;10.728;2023-03-01T21:30:30;3.60;73.10
14049;DHT22;7099;53.922;10.728;2023-03-01T21:34:37;3.60;73.00
14049;DHT22;7099;53.922;10.728;2023-03-01T21:38:44;3.60;72.70
14049;DHT22;7099;53.922;10.728;2023-03-01T21:42:51;3.50;72.50
14049;DHT22;7099;53.922;10.728;2023-03-01T21:46:57;3.50;72.80
14049;DHT22;7099;53.922;10.728;2023-03-01T21:51:06;3.40;73.10
14049;DHT22;7099;53.922;10.728;2023-03-01T21:55:11;3.30;73.20
14049;DHT22;7099;53.922;10.728;2023-03-01T21:59:20;3.30;73.10
14049;DHT22;7099;53.922;10.728;2023-03-01T22:03:26;3.40;73.30
14049;DHT22;7099;53.922;10.728;2023-03-01T22:07:32;3.30;73.30
14049;DHT22;7099;53.922;10.728;2023-03-01T22:11:39;3.30;73.10
14049;DHT22;7099;53.922;10.728;2023-03-01T22:15:47;3.30;73.00
14049;DHT22;7099;53.922;10.728;2023-03-01T22:19:53;3.30;73.00
14049;DHT22;7099;53.922;10.728;2023-03-01T22:23:59;3.30;73.10
14049;DHT22;7099;53.922;10.728;2023-03-01T22:28:04;3.30;72.90
14049;DHT22;7099;53.922;10.728;2023-03-01T22:32:10;3.20;72.70
14049;DHT22;7099;53.922;10.728;2023-03-01T22:36:16;3.20;72.50
14049;DHT22;7099;53.922;10.728;2023-03-01T22:40:21;3.20;72.80
14049;DHT22;7099;53.922;10.728;2023-03-01T22:44:27;3.10;72.70
14049;DHT22;7099;53.922;10.728;2023-03-01T22:48:32;3.10;73.00
14049;DHT22;7099;53.922;10.728;2023-03-01T22:52:38;3.10;73.20
14049;DHT22;7099;53.922;10.728;2023-03-01T22:56:44;3.00;73.20
14049;DHT22;7099;53.922;10.728;2023-03-01T23:00:50;3.00;73.40
14049;DHT22;7099;53.922;10.728;2023-03-01T23:04:56;3.00;73.40
14049;DHT22;7099;53.922;10.728;2023-03-01T23:09:02;3.00;73.30
14049;DHT22;7099;53.922;10.728;2023-03-01T23:13:11;2.90;73.40
14049;DHT22;7099;53.922;10.728;2023-03-01T23:17:16;3.00;73.30
14049;DHT22;7099;53.922;10.728;2023-03-01T23:21:22;2.90;73.20
14049;DHT22;7099;53.922;10.728;2023-03-01T23:25:27;2.90;73.30
14049;DHT22;7099;53.922;10.728;2023-03-01T23:29:33;2.90;73.30
14049;DHT22;7099;53.922;10.728;2023-03-01T23:33:38;2.90;73.30
14049;DHT22;7099;53.922;10.728;2023-03-01T23:37:47;2.90;73.30
14049;DHT22;7099;53.922;10.728;2023-03-01T23:41:52;2.90;73.30
14049;DHT22;7099;53.922;10.728;2023-03-01T23:45:58;2.90;73.10
14049;DHT22;7099;53.922;10.728;2023-03-01T23:50:04;2.90;73.00
14049;DHT22;7099;53.922;10.728;2023-03-01T23:54:10;2.80;72.80
14049;DHT22;7099;53.922;10.728;2023-03-01T23:58:18;2.80;72.80
